sensor_id;sensor_type;location;lat;lon;timestamp;temperature;humidity
15231;DHT22;32569;51.762;8.564;2023-06-26T00:00:28;22.50;99.40
15231;DHT22;32569;51.762;8.564;2023-06-26T00:02:55;22.50;99.40
15231;DHT22;32569;51.762;8.564;2023-06-26T00:05:22;22.40;99.70
15231;DHT22;32569;51.762;8.564;2023-06-26T00:07:50;22.30;99.70
15231;DHT22;32569;51.762;8.564;2023-06-26T00:10:16;22.20;99.90
15231;DHT22;32569;51.762;8.564;2023-06-26T00:12:43;22.20;99.90
15231;DHT22;32569;51.762;8.564;2023-06-26T00:15:10;22.20;99.90
15231;DHT22;32569;51.762;8.564;2023-06-26T00:17:37;22.10;99.90
15231;DHT22;32569;51.762;8.564;2023-06-26T00:20:05;22.10;99.90
15231;DHT22;32569;51.762;8.564;2023-06-26T00:22:32;22.00;99.90
15231;DHT22;32569;51.762;8.564;2023-06-26T00:25:03;21.90;99.90
15231;DHT22;32569;51.762;8.564;2023-06-26T00:27:35;21.80;99.90
15231;DHT22;32569;51.762;8.564;2023-06-26T00:30:03;21.80;99.90
15231;DHT22;32569;51.762;8.564;2023-06-26T00:32:30;21.80;99.90
15231;DHT22;32569;51.762;8.564;2023-06-26T00:34:56;21.70;99.90
15231;DHT22;32569;51.762;8.564;2023-06-26T00:37:23;21.70;99.90
15231;DHT22;32569;51.762;8.564;2023-06-26T00:39:50;21.60;99.90
15231;DHT22;32569;51.762;8.564;2023-06-26T00:42:18;21.50;99.90
15231;DHT22;32569;51.762;8.564;2023-06-26T00:44:44;21.40;99.90
15231;DHT22;32569;51.762;8.564;2023-06-26T00:47:13;21.40;99.90
15231;DHT22;32569;51.762;8.564;2023-06-26T00:49:40;21.50;99.90
15231;DHT22;32569;51.762;8.564;2023-06-26T00:52:07;21.40;99.90
15231;DHT22;32569;51.762;8.564;2023-06-26T00:54:34;21.30;99.90
15231;DHT22;32569;51.762;8.564;2023-06-26T00:57:01;21.50;99.90
15231;DHT22;32569;51.762;8.564;2023-06-26T00:59:29;21.50;99.90
15231;DHT22;32569;51.762;8.564;2023-06-26T01:01:56;21.50;99.90
15231;DHT22;32569;51.762;8.564;2023-06-26T01:04:22;21.40;99.90
15231;DHT22;32569;51.762;8.564;2023-06-26T01:06:53;21.40;99.90
15231;DHT22;32569;51.762;8.564;2023-06-26T01:09:21;21.40;99.90
15231;DHT22;32569;51.762;8.564;2023-06-26T01:11:48;21.30;99.90
15231;DHT22;32569;51.762;8.564;2023-06-26T01:14:15;21.30;99.90
15231;DHT22;32569;51.762;8.564;2023-06-26T01:16:43;21.30;99.90
15231;DHT22;32569;51.762;8.564;2023-06-26T01:19:24;21.30;99.90
15231;DHT22;32569;51.762;8.564;2023-06-26T01:21:56;21.30;99.90
15231;DHT22;32569;51.762;8.564;2023-06-26T01:24:25;21.20;99.90
15231;DHT22;32569;51.762;8.564;2023-06-26T01:26:59;21.20;99.90
15231;DHT22;32569;51.762;8.564;2023-06-26T01:29:28;21.30;99.90
15231;DHT22;32569;51.762;8.564;2023-06-26T01:32:00;21.30;99.90
15231;DHT22;32569;51.762;8.564;2023-06-26T01:34:27;21.30;99.90
15231;DHT22;32569;51.762;8.564;2023-06-26T01:36:54;21.20;99.90
15231;DHT22;32569;51.762;8.564;2023-06-26T01:39:20;21.20;99.90
15231;DHT22;32569;51.762;8.564;2023-06-26T01:41:47;21.20;99.90
15231;DHT22;32569;51.762;8.564;2023-06-26T01:44:21;21.00;99.90
15231;DHT22;32569;51.762;8.564;2023-06-26T01:46:58;20.90;99.90
15231;DHT22;32569;51.762;8.564;2023-06-26T01:49:33;21.00;99.90
15231;DHT22;32569;51.762;8.564;2023-06-26T01:52:07;21.00;99.90
15231;DHT22;32569;51.762;8.564;2023-06-26T01:54:39;20.90;99.90
15231;DHT22;32569;51.762;8.564;2023-06-26T01:57:11;21.00;99.90
15231;DHT22;32569;51.762;8.564;2023-06-26T01:59:40;21.10;99.90
15231;DHT22;32569;51.762;8.564;2023-06-26T02:02:08;21.20;99.90
15231;DHT22;32569;51.762;8.564;2023-06-26T02:04:35;21.10;99.90
15231;DHT22;32569;51.762;8.564;2023-06-26T02:07:02;21.00;99.90
15231;DHT22;32569;51.762;8.564;2023-06-26T02:09:29;21.00;99.90
15231;DHT22;32569;51.762;8.564;2023-06-26T02:11:59;20.90;99.90
15231;DHT22;32569;51.762;8.564;2023-06-26T02:14:25;20.80;99.90
15231;DHT22;32569;51.762;8.564;2023-06-26T02:16:53;20.90;99.90
15231;DHT22;32569;51.762;8.564;2023-06-26T02:19:20;20.80;99.90
15231;DHT22;32569;51.762;8.564;2023-06-26T02:21:48;20.80;99.90
15231;DHT22;32569;51.762;8.564;2023-06-26T02:24:14;20.70;99.90
15231;DHT22;32569;51.762;8.564;2023-06-26T02:26:41;20.70;99.90
15231;DHT22;32569;51.762;8.564;2023-06-26T02:29:08;20.80;99.90
15231;DHT22;32569;51.762;8.564;2023-06-26T02:31:34;20.80;99.90
15231;DHT22;32569;51.762;8.564;2023-06-26T02:34:02;20.90;99.90
15231;DHT22;32569;51.762;8.564;2023-06-26T02:36:29;20.90;99.90
15231;DHT22;32569;51.762;8.564;2023-06-26T02:38:56;20.80;99.90
15231;DHT22;32569;51.762;8.564;2023-06-26T02:41:22;20.80;99.90
15231;DHT22;32569;51.762;8.564;2023-06-26T02:43:49;20.70;99.90
15231;DHT22;32569;51.762;8.564;2023-06-26T02:46:16;20.70;99.90
15231;DHT22;32569;51.762;8.564;2023-06-26T02:48:42;20.60;99.90
15231;DHT22;32569;51.762;8.564;2023-06-26T02:51:10;20.60;99.90
15231;DHT22;32569;51.762;8.564;2023-06-26T02:53:37;20.70;99.90
15231;DHT22;32569;51.762;8.564;2023-06-26T02:56:04;20.60;99.90
15231;DHT22;32569;51.762;8.564;2023-06-26T02:58:31;20.70;99.90
15231;DHT22;32569;51.762;8.564;2023-06-26T03:00:57;20.60;99.90
15231;DHT22;32569;51.762;8.564;2023-06-26T03:03:24;20.60;99.90
15231;DHT22;32569;51.762;8.564;2023-06-26T03:05:51;20.60;99.90
15231;DHT22;32569;51.762;8.564;2023-06-26T03:08:19;20.50;99.90
15231;DHT22;32569;51.762;8.564;2023-06-26T03:10:45;20.40;99.90
15231;DHT22;32569;51.762;8.564;2023-06-26T03:13:12;20.50;99.90
15231;DHT22;32569;51.762;8.564;2023-06-26T03:15:38;20.50;99.90
15231;DHT22;32569;51.762;8.564;2023-06-26T03:18:05;20.40;99.90
15231;DHT22;32569;51.762;8.564;2023-06-26T03:20:32;20.50;99.90
15231;DHT22;32569;51.762;8.564;2023-06-26T03:22:58;20.40;99.90
15231;DHT22;32569;51.762;8.564;2023-06-26T03:25:27;20.50;99.90
15231;DHT22;32569;51.762;8.564;2023-06-26T03:27:53;20.50;99.90
15231;DHT22;32569;51.762;8.564;2023-06-26T03:30:20;20.50;99.90
15231;DHT22;32569;51.762;8.564;2023-06-26T03:32:46;20.50;99.90
15231;DHT22;32569;51.762;8.564;2023-06-26T03:35:16;20.50;99.90
15231;DHT22;32569;51.762;8.564;2023-06-26T03:37:43;20.40;99.90
15231;DHT22;32569;51.762;8.564;2023-06-26T03:40:10;20.50;99.90
15231;DHT22;32569;51.762;8.564;2023-06-26T03:42:38;20.50;99.90
15231;DHT22;32569;51.762;8.564;2023-06-26T03:45:05;20.40;99.90
15231;DHT22;32569;51.762;8.564;2023-06-26T03:47:32;20.50;99.90
15231;DHT22;32569;51.762;8.564;2023-06-26T03:49:58;20.40;99.90
15231;DHT22;32569;51.762;8.564;2023-06-26T03:52:25;20.30;99.90
15231;DHT22;32569;51.762;8.564;2023-06-26T03:54:52;20.30;99.90
15231;DHT22;32569;51.762;8.564;2023-06-26T03:57:18;20.40;99.90
15231;DHT22;32569;51.762;8.564;2023-06-26T03:59:46;20.50;99.90
15231;DHT22;32569;51.762;8.564;2023-06-26T04:02:13;20.60;99.90
15231;DHT22;32569;51.762;8.564;2023-06-26T04:04:39;20.80;99.90
15231;DHT22;32569;51.762;8.564;2023-06-26T04:07:06;20.90;99.90
15231;DHT22;32569;51.762;8.564;2023-06-26T04:09:33;20.90;99.90
15231;DHT22;32569;51.762;8.564;2023-06-26T04:11:59;21.00;99.90
15231;DHT22;32569;51.762;8.564;2023-06-26T04:14:26;20.90;99.90
15231;DHT22;32569;51.762;8.564;2023-06-26T04:16:54;20.90;99.90
15231;DHT22;32569;51.762;8.564;2023-06-26T04:19:20;20.90;99.90
15231;DHT22;32569;51.762;8.564;2023-06-26T04:21:47;20.90;99.90
15231;DHT22;32569;51.762;8.564;2023-06-26T04:24:14;20.80;99.90
15231;DHT22;32569;51.762;8.564;2023-06-26T04:26:41;21.00;99.70
15231;DHT22;32569;51.762;8.564;2023-06-26T04:29:07;21.20;99.70
15231;DHT22;32569;51.762;8.564;2023-06-26T04:31:34;21.10;99.90
15231;DHT22;32569;51.762;8.564;2023-06-26T04:34:02;21.10;99.90
15231;DHT22;32569;51.762;8.564;2023-06-26T04:36:29;21.10;99.90
15231;DHT22;32569;51.762;8.564;2023-06-26T04:38:56;21.10;99.90
15231;DHT22;32569;51.762;8.564;2023-06-26T04:41:24;21.10;99.70
15231;DHT22;32569;51.762;8.564;2023-06-26T04:43:50;21.20;99.20
15231;DHT22;32569;51.762;8.564;2023-06-26T04:46:17;21.30;98.80
15231;DHT22;32569;51.762;8.564;2023-06-26T04:48:44;21.30;99.00
15231;DHT22;32569;51.762;8.564;2023-06-26T04:51:12;21.40;99.20
15231;DHT22;32569;51.762;8.564;2023-06-26T04:53:39;21.40;99.40
15231;DHT22;32569;51.762;8.564;2023-06-26T04:56:05;21.30;99.90
15231;DHT22;32569;51.762;8.564;2023-06-26T04:58:32;21.40;99.90
15231;DHT22;32569;51.762;8.564;2023-06-26T05:00:59;21.70;99.90
15231;DHT22;32569;51.762;8.564;2023-06-26T05:03:25;21.80;99.70
15231;DHT22;32569;51.762;8.564;2023-06-26T05:05:52;21.90;99.60
15231;DHT22;32569;51.762;8.564;2023-06-26T05:08:22;22.10;98.70
15231;DHT22;32569;51.762;8.564;2023-06-26T05:10:49;22.40;98.70
15231;DHT22;32569;51.762;8.564;2023-06-26T05:13:16;22.60;98.30
15231;DHT22;32569;51.762;8.564;2023-06-26T05:15:45;22.80;98.00
15231;DHT22;32569;51.762;8.564;2023-06-26T05:18:12;23.10;97.70
15231;DHT22;32569;51.762;8.564;2023-06-26T05:20:39;23.40;97.70
15231;DHT22;32569;51.762;8.564;2023-06-26T05:23:06;23.60;96.50
15231;DHT22;32569;51.762;8.564;2023-06-26T05:25:34;23.80;96.30
15231;DHT22;32569;51.762;8.564;2023-06-26T05:28:02;24.10;95.80
15231;DHT22;32569;51.762;8.564;2023-06-26T05:30:31;24.10;95.40
15231;DHT22;32569;51.762;8.564;2023-06-26T05:33:00;24.20;95.20
15231;DHT22;32569;51.762;8.564;2023-06-26T05:35:28;24.40;94.90
15231;DHT22;32569;51.762;8.564;2023-06-26T05:37:56;24.70;94.70
15231;DHT22;32569;51.762;8.564;2023-06-26T05:40:23;24.80;94.40
15231;DHT22;32569;51.762;8.564;2023-06-26T05:42:52;25.00;94.20
15231;DHT22;32569;51.762;8.564;2023-06-26T05:45:19;25.10;93.70
15231;DHT22;32569;51.762;8.564;2023-06-26T05:47:45;25.40;94.20
15231;DHT22;32569;51.762;8.564;2023-06-26T05:50:14;25.50;93.30
15231;DHT22;32569;51.762;8.564;2023-06-26T05:52:42;25.50;93.20
15231;DHT22;32569;51.762;8.564;2023-06-26T05:55:10;25.80;93.20
15231;DHT22;32569;51.762;8.564;2023-06-26T05:57:38;25.80;93.10
15231;DHT22;32569;51.762;8.564;2023-06-26T06:00:09;25.90;92.10
15231;DHT22;32569;51.762;8.564;2023-06-26T06:02:36;25.90;92.30
15231;DHT22;32569;51.762;8.564;2023-06-26T06:05:03;25.90;92.40
15231;DHT22;32569;51.762;8.564;2023-06-26T06:07:31;25.90;92.20
15231;DHT22;32569;51.762;8.564;2023-06-26T06:09:57;25.80;92.10
15231;DHT22;32569;51.762;8.564;2023-06-26T06:12:24;25.90;92.20
15231;DHT22;32569;51.762;8.564;2023-06-26T06:14:51;25.90;92.20
15231;DHT22;32569;51.762;8.564;2023-06-26T06:17:19;25.90;92.20
15231;DHT22;32569;51.762;8.564;2023-06-26T06:19:46;25.80;91.80
15231;DHT22;32569;51.762;8.564;2023-06-26T06:22:12;25.70;92.00
15231;DHT22;32569;51.762;8.564;2023-06-26T06:24:39;25.60;92.00
15231;DHT22;32569;51.762;8.564;2023-06-26T06:27:06;25.70;92.20
15231;DHT22;32569;51.762;8.564;2023-06-26T06:29:32;25.80;92.20
15231;DHT22;32569;51.762;8.564;2023-06-26T06:32:01;25.90;92.10
15231;DHT22;32569;51.762;8.564;2023-06-26T06:34:28;25.90;91.80
15231;DHT22;32569;51.762;8.564;2023-06-26T06:36:55;25.80;92.10
15231;DHT22;32569;51.762;8.564;2023-06-26T06:39:22;25.80;92.70
15231;DHT22;32569;51.762;8.564;2023-06-26T06:41:48;26.00;92.50
15231;DHT22;32569;51.762;8.564;2023-06-26T06:44:15;26.20;91.70
15231;DHT22;32569;51.762;8.564;2023-06-26T06:46:41;26.20;92.00
15231;DHT22;32569;51.762;8.564;2023-06-26T06:49:08;26.10;91.80
15231;DHT22;32569;51.762;8.564;2023-06-26T06:51:36;26.00;91.50
15231;DHT22;32569;51.762;8.564;2023-06-26T06:54:03;25.80;92.10
15231;DHT22;32569;51.762;8.564;2023-06-26T06:56:30;25.70;92.30
15231;DHT22;32569;51.762;8.564;2023-06-26T06:58:56;25.40;92.70
15231;DHT22;32569;51.762;8.564;2023-06-26T07:01:23;25.20;92.90
15231;DHT22;32569;51.762;8.564;2023-06-26T07:03:50;25.20;93.10
15231;DHT22;32569;51.762;8.564;2023-06-26T07:06:16;25.20;93.20
15231;DHT22;32569;51.762;8.564;2023-06-26T07:08:44;25.10;93.10
15231;DHT22;32569;51.762;8.564;2023-06-26T07:11:11;25.10;93.50
15231;DHT22;32569;51.762;8.564;2023-06-26T07:13:37;25.10;93.70
15231;DHT22;32569;51.762;8.564;2023-06-26T07:16:04;25.10;93.70
15231;DHT22;32569;51.762;8.564;2023-06-26T07:18:30;25.00;94.10
15231;DHT22;32569;51.762;8.564;2023-06-26T07:20:57;25.00;94.20
15231;DHT22;32569;51.762;8.564;2023-06-26T07:23:24;25.00;94.20
15231;DHT22;32569;51.762;8.564;2023-06-26T07:25:52;24.90;94.10
15231;DHT22;32569;51.762;8.564;2023-06-26T07:28:18;24.90;94.60
15231;DHT22;32569;51.762;8.564;2023-06-26T07:30:45;24.90;94.70
15231;DHT22;32569;51.762;8.564;2023-06-26T07:33:11;24.90;94.60
15231;DHT22;32569;51.762;8.564;2023-06-26T07:35:38;24.90;94.90
15231;DHT22;32569;51.762;8.564;2023-06-26T07:38:05;24.80;94.70
15231;DHT22;32569;51.762;8.564;2023-06-26T07:40:31;24.80;95.00
15231;DHT22;32569;51.762;8.564;2023-06-26T07:42:59;24.90;95.20
15231;DHT22;32569;51.762;8.564;2023-06-26T07:45:26;25.10;95.00
15231;DHT22;32569;51.762;8.564;2023-06-26T07:47:52;25.20;94.70
15231;DHT22;32569;51.762;8.564;2023-06-26T07:50:19;25.20;94.80
15231;DHT22;32569;51.762;8.564;2023-06-26T07:52:48;25.20;94.20
15231;DHT22;32569;51.762;8.564;2023-06-26T07:55:15;25.20;94.80
15231;DHT22;32569;51.762;8.564;2023-06-26T07:57:41;25.10;94.50
15231;DHT22;32569;51.762;8.564;2023-06-26T08:00:10;25.10;94.60
15231;DHT22;32569;51.762;8.564;2023-06-26T08:02:37;25.00;94.70
15231;DHT22;32569;51.762;8.564;2023-06-26T08:05:04;25.00;94.80
15231;DHT22;32569;51.762;8.564;2023-06-26T08:07:31;25.10;94.90
15231;DHT22;32569;51.762;8.564;2023-06-26T08:09:57;25.10;94.80
15231;DHT22;32569;51.762;8.564;2023-06-26T08:12:24;25.10;95.00
15231;DHT22;32569;51.762;8.564;2023-06-26T08:14:50;24.90;95.10
15231;DHT22;32569;51.762;8.564;2023-06-26T08:17:19;24.70;95.80
15231;DHT22;32569;51.762;8.564;2023-06-26T08:19:45;24.70;95.90
15231;DHT22;32569;51.762;8.564;2023-06-26T08:22:12;24.60;96.20
15231;DHT22;32569;51.762;8.564;2023-06-26T08:24:38;24.40;96.60
15231;DHT22;32569;51.762;8.564;2023-06-26T08:27:05;24.30;96.80
15231;DHT22;32569;51.762;8.564;2023-06-26T08:29:33;24.10;97.10
15231;DHT22;32569;51.762;8.564;2023-06-26T08:31:59;24.20;97.60
15231;DHT22;32569;51.762;8.564;2023-06-26T08:34:28;24.30;97.40
15231;DHT22;32569;51.762;8.564;2023-06-26T08:36:55;24.40;96.80
15231;DHT22;32569;51.762;8.564;2023-06-26T08:39:22;24.50;97.20
15231;DHT22;32569;51.762;8.564;2023-06-26T08:41:48;24.50;96.40
15231;DHT22;32569;51.762;8.564;2023-06-26T08:44:15;24.60;96.50
15231;DHT22;32569;51.762;8.564;2023-06-26T08:46:42;24.80;96.50
15231;DHT22;32569;51.762;8.564;2023-06-26T08:49:14;24.90;95.80
15231;DHT22;32569;51.762;8.564;2023-06-26T08:51:50;24.70;95.70
15231;DHT22;32569;51.762;8.564;2023-06-26T08:54:24;24.50;96.10
15231;DHT22;32569;51.762;8.564;2023-06-26T08:56:55;24.50;96.70
15231;DHT22;32569;51.762;8.564;2023-06-26T08:59:23;24.50;96.70
15231;DHT22;32569;51.762;8.564;2023-06-26T09:01:50;24.60;96.40
15231;DHT22;32569;51.762;8.564;2023-06-26T09:04:17;24.60;96.70
15231;DHT22;32569;51.762;8.564;2023-06-26T09:06:45;24.70;96.30
15231;DHT22;32569;51.762;8.564;2023-06-26T09:09:11;24.70;96.20
15231;DHT22;32569;51.762;8.564;2023-06-26T09:11:39;24.70;95.70
15231;DHT22;32569;51.762;8.564;2023-06-26T09:14:06;24.50;96.00
15231;DHT22;32569;51.762;8.564;2023-06-26T09:16:39;24.50;96.20
15231;DHT22;32569;51.762;8.564;2023-06-26T09:19:10;24.60;96.20
15231;DHT22;32569;51.762;8.564;2023-06-26T09:21:38;24.60;95.90
15231;DHT22;32569;51.762;8.564;2023-06-26T09:24:07;24.60;96.20
15231;DHT22;32569;51.762;8.564;2023-06-26T09:26:35;24.60;96.10
15231;DHT22;32569;51.762;8.564;2023-06-26T09:29:02;24.70;96.10
15231;DHT22;32569;51.762;8.564;2023-06-26T09:31:29;24.90;96.00
15231;DHT22;32569;51.762;8.564;2023-06-26T09:33:58;25.20;95.60
15231;DHT22;32569;51.762;8.564;2023-06-26T09:36:27;25.10;95.30
15231;DHT22;32569;51.762;8.564;2023-06-26T09:38:54;24.90;95.70
15231;DHT22;32569;51.762;8.564;2023-06-26T09:41:22;25.00;95.30
15231;DHT22;32569;51.762;8.564;2023-06-26T09:43:49;25.10;95.90
15231;DHT22;32569;51.762;8.564;2023-06-26T09:46:24;25.10;95.60
15231;DHT22;32569;51.762;8.564;2023-06-26T09:48:58;25.00;95.90
15231;DHT22;32569;51.762;8.564;2023-06-26T09:51:24;25.20;95.80
15231;DHT22;32569;51.762;8.564;2023-06-26T09:53:52;25.30;95.70
15231;DHT22;32569;51.762;8.564;2023-06-26T09:56:18;25.30;95.20
15231;DHT22;32569;51.762;8.564;2023-06-26T09:58:49;25.00;95.20
15231;DHT22;32569;51.762;8.564;2023-06-26T10:01:17;24.90;95.40
15231;DHT22;32569;51.762;8.564;2023-06-26T10:03:44;24.90;95.70
15231;DHT22;32569;51.762;8.564;2023-06-26T10:06:12;25.00;95.90
15231;DHT22;32569;51.762;8.564;2023-06-26T10:08:39;25.10;95.90
15231;DHT22;32569;51.762;8.564;2023-06-26T10:11:08;25.10;95.00
15231;DHT22;32569;51.762;8.564;2023-06-26T10:13:41;25.10;95.20
15231;DHT22;32569;51.762;8.564;2023-06-26T10:16:11;24.90;95.40
15231;DHT22;32569;51.762;8.564;2023-06-26T10:18:39;25.00;95.60
15231;DHT22;32569;51.762;8.564;2023-06-26T10:21:06;25.00;95.40
15231;DHT22;32569;51.762;8.564;2023-06-26T10:23:36;25.10;95.50
15231;DHT22;32569;51.762;8.564;2023-06-26T10:26:06;25.20;95.40
15231;DHT22;32569;51.762;8.564;2023-06-26T10:28:34;25.40;95.30
15231;DHT22;32569;51.762;8.564;2023-06-26T10:31:03;25.50;94.70
15231;DHT22;32569;51.762;8.564;2023-06-26T10:33:31;25.50;94.80
15231;DHT22;32569;51.762;8.564;2023-06-26T10:36:13;25.50;94.80
15231;DHT22;32569;51.762;8.564;2023-06-26T10:38:49;25.40;94.10
15231;DHT22;32569;51.762;8.564;2023-06-26T10:41:19;25.20;94.20
15231;DHT22;32569;51.762;8.564;2023-06-26T10:43:49;25.10;94.50
15231;DHT22;32569;51.762;8.564;2023-06-26T10:46:18;25.20;94.70
15231;DHT22;32569;51.762;8.564;2023-06-26T10:48:59;25.20;94.90
15231;DHT22;32569;51.762;8.564;2023-06-26T10:51:26;25.40;95.00
15231;DHT22;32569;51.762;8.564;2023-06-26T10:53:56;25.40;95.10
15231;DHT22;32569;51.762;8.564;2023-06-26T10:56:41;25.20;94.50
15231;DHT22;32569;51.762;8.564;2023-06-26T10:59:14;25.20;94.70
15231;DHT22;32569;51.762;8.564;2023-06-26T11:01:43;25.20;94.50
15231;DHT22;32569;51.762;8.564;2023-06-26T11:04:14;25.20;94.60
15231;DHT22;32569;51.762;8.564;2023-06-26T11:06:45;25.20;94.10
15231;DHT22;32569;51.762;8.564;2023-06-26T11:09:15;25.20;94.30
15231;DHT22;32569;51.762;8.564;2023-06-26T11:12:00;25.50;94.50
15231;DHT22;32569;51.762;8.564;2023-06-26T11:14:41;25.70;94.00
15231;DHT22;32569;51.762;8.564;2023-06-26T11:17:08;25.50;92.80
15231;DHT22;32569;51.762;8.564;2023-06-26T11:19:42;25.10;93.10
15231;DHT22;32569;51.762;8.564;2023-06-26T11:22:09;25.00;93.30
15231;DHT22;32569;51.762;8.564;2023-06-26T11:24:36;24.90;92.90
15231;DHT22;32569;51.762;8.564;2023-06-26T11:27:04;24.70;93.20
15231;DHT22;32569;51.762;8.564;2023-06-26T11:29:31;24.80;93.70
15231;DHT22;32569;51.762;8.564;2023-06-26T11:32:00;24.80;93.20
15231;DHT22;32569;51.762;8.564;2023-06-26T11:34:30;24.80;93.90
15231;DHT22;32569;51.762;8.564;2023-06-26T11:36:58;25.00;94.20
15231;DHT22;32569;51.762;8.564;2023-06-26T11:39:28;25.20;93.80
15231;DHT22;32569;51.762;8.564;2023-06-26T11:41:55;25.20;93.80
15231;DHT22;32569;51.762;8.564;2023-06-26T11:44:22;25.40;92.60
15231;DHT22;32569;51.762;8.564;2023-06-26T11:46:51;25.60;92.80
15231;DHT22;32569;51.762;8.564;2023-06-26T11:49:22;25.60;92.00
15231;DHT22;32569;51.762;8.564;2023-06-26T11:51:51;25.70;92.30
15231;DHT22;32569;51.762;8.564;2023-06-26T11:54:24;25.30;92.20
15231;DHT22;32569;51.762;8.564;2023-06-26T11:56:52;25.20;92.30
15231;DHT22;32569;51.762;8.564;2023-06-26T11:59:19;25.00;91.60
15231;DHT22;32569;51.762;8.564;2023-06-26T12:01:46;25.10;91.90
15231;DHT22;32569;51.762;8.564;2023-06-26T12:04:15;25.10;90.70
15231;DHT22;32569;51.762;8.564;2023-06-26T12:06:48;25.20;91.00
15231;DHT22;32569;51.762;8.564;2023-06-26T12:09:18;25.20;90.40
15231;DHT22;32569;51.762;8.564;2023-06-26T12:11:48;25.40;90.00
15231;DHT22;32569;51.762;8.564;2023-06-26T12:14:18;25.30;90.20
15231;DHT22;32569;51.762;8.564;2023-06-26T12:16:46;25.20;90.20
15231;DHT22;32569;51.762;8.564;2023-06-26T12:19:13;25.20;90.30
15231;DHT22;32569;51.762;8.564;2023-06-26T12:21:47;25.10;90.70
15231;DHT22;32569;51.762;8.564;2023-06-26T12:24:18;25.20;88.80
15231;DHT22;32569;51.762;8.564;2023-06-26T12:26:49;25.40;88.40
15231;DHT22;32569;51.762;8.564;2023-06-26T12:29:17;25.50;86.90
15231;DHT22;32569;51.762;8.564;2023-06-26T12:31:45;25.60;87.60
15231;DHT22;32569;51.762;8.564;2023-06-26T12:34:14;25.50;85.50
15231;DHT22;32569;51.762;8.564;2023-06-26T12:36:44;25.60;85.90
15231;DHT22;32569;51.762;8.564;2023-06-26T12:39:12;25.60;85.00
15231;DHT22;32569;51.762;8.564;2023-06-26T12:41:47;25.60;85.00
15231;DHT22;32569;51.762;8.564;2023-06-26T12:44:18;25.80;86.20
15231;DHT22;32569;51.762;8.564;2023-06-26T12:46:46;26.10;86.60
15231;DHT22;32569;51.762;8.564;2023-06-26T12:49:13;26.20;85.40
15231;DHT22;32569;51.762;8.564;2023-06-26T12:51:39;26.00;84.80
15231;DHT22;32569;51.762;8.564;2023-06-26T12:54:08;26.20;86.50
15231;DHT22;32569;51.762;8.564;2023-06-26T12:56:35;26.20;83.20
15231;DHT22;32569;51.762;8.564;2023-06-26T12:59:02;26.20;83.20
15231;DHT22;32569;51.762;8.564;2023-06-26T13:01:29;26.20;82.60
15231;DHT22;32569;51.762;8.564;2023-06-26T13:03:56;26.00;84.10
15231;DHT22;32569;51.762;8.564;2023-06-26T13:06:22;25.80;82.80
15231;DHT22;32569;51.762;8.564;2023-06-26T13:08:49;25.80;82.90
15231;DHT22;32569;51.762;8.564;2023-06-26T13:11:16;25.60;83.60
15231;DHT22;32569;51.762;8.564;2023-06-26T13:13:42;25.50;84.20
15231;DHT22;32569;51.762;8.564;2023-06-26T13:16:10;25.50;86.00
15231;DHT22;32569;51.762;8.564;2023-06-26T13:18:37;25.50;85.90
15231;DHT22;32569;51.762;8.564;2023-06-26T13:21:04;25.50;86.20
15231;DHT22;32569;51.762;8.564;2023-06-26T13:23:31;25.40;85.60
15231;DHT22;32569;51.762;8.564;2023-06-26T13:25:57;25.20;86.10
15231;DHT22;32569;51.762;8.564;2023-06-26T13:28:24;25.20;87.20
15231;DHT22;32569;51.762;8.564;2023-06-26T13:30:50;25.20;87.40
15231;DHT22;32569;51.762;8.564;2023-06-26T13:33:18;25.50;88.30
15231;DHT22;32569;51.762;8.564;2023-06-26T13:35:45;25.50;87.60
15231;DHT22;32569;51.762;8.564;2023-06-26T13:38:11;25.40;88.00
15231;DHT22;32569;51.762;8.564;2023-06-26T13:40:38;25.60;88.00
15231;DHT22;32569;51.762;8.564;2023-06-26T13:43:05;25.50;86.70
15231;DHT22;32569;51.762;8.564;2023-06-26T13:45:31;25.30;87.00
15231;DHT22;32569;51.762;8.564;2023-06-26T13:47:58;25.30;87.30
15231;DHT22;32569;51.762;8.564;2023-06-26T13:50:26;25.50;87.70
15231;DHT22;32569;51.762;8.564;2023-06-26T13:52:52;25.60;88.60
15231;DHT22;32569;51.762;8.564;2023-06-26T13:55:19;25.60;88.10
15231;DHT22;32569;51.762;8.564;2023-06-26T13:57:48;25.40;87.90
15231;DHT22;32569;51.762;8.564;2023-06-26T14:00:15;25.30;87.90
15231;DHT22;32569;51.762;8.564;2023-06-26T14:02:45;25.00;88.10
15231;DHT22;32569;51.762;8.564;2023-06-26T14:05:11;25.00;89.20
15231;DHT22;32569;51.762;8.564;2023-06-26T14:07:40;25.10;87.60
15231;DHT22;32569;51.762;8.564;2023-06-26T14:10:09;25.20;88.20
15231;DHT22;32569;51.762;8.564;2023-06-26T14:12:35;25.40;86.50
15231;DHT22;32569;51.762;8.564;2023-06-26T14:15:03;25.30;86.40
15231;DHT22;32569;51.762;8.564;2023-06-26T14:17:30;25.40;86.10
15231;DHT22;32569;51.762;8.564;2023-06-26T14:19:56;25.50;87.10
15231;DHT22;32569;51.762;8.564;2023-06-26T14:22:23;25.70;84.90
15231;DHT22;32569;51.762;8.564;2023-06-26T14:24:51;25.70;83.00
15231;DHT22;32569;51.762;8.564;2023-06-26T14:27:17;25.60;84.60
15231;DHT22;32569;51.762;8.564;2023-06-26T14:29:44;25.60;83.40
15231;DHT22;32569;51.762;8.564;2023-06-26T14:32:11;25.40;80.50
15231;DHT22;32569;51.762;8.564;2023-06-26T14:34:37;25.30;81.20
15231;DHT22;32569;51.762;8.564;2023-06-26T14:37:05;25.30;80.80
15231;DHT22;32569;51.762;8.564;2023-06-26T14:39:32;25.30;81.20
15231;DHT22;32569;51.762;8.564;2023-06-26T14:42:00;25.50;81.40
15231;DHT22;32569;51.762;8.564;2023-06-26T14:44:27;25.50;80.60
15231;DHT22;32569;51.762;8.564;2023-06-26T14:46:53;25.50;79.50
15231;DHT22;32569;51.762;8.564;2023-06-26T14:49:20;25.30;79.40
15231;DHT22;32569;51.762;8.564;2023-06-26T14:51:46;25.50;79.70
15231;DHT22;32569;51.762;8.564;2023-06-26T14:54:13;25.50;78.00
15231;DHT22;32569;51.762;8.564;2023-06-26T14:56:40;25.40;78.60
15231;DHT22;32569;51.762;8.564;2023-06-26T14:59:10;25.40;78.80
15231;DHT22;32569;51.762;8.564;2023-06-26T15:01:36;25.30;77.50
15231;DHT22;32569;51.762;8.564;2023-06-26T15:04:03;25.10;78.30
15231;DHT22;32569;51.762;8.564;2023-06-26T15:06:30;25.10;78.50
15231;DHT22;32569;51.762;8.564;2023-06-26T15:08:57;25.10;77.60
15231;DHT22;32569;51.762;8.564;2023-06-26T15:11:24;25.20;75.60
15231;DHT22;32569;51.762;8.564;2023-06-26T15:13:51;25.10;76.40
15231;DHT22;32569;51.762;8.564;2023-06-26T15:16:19;25.10;75.70
15231;DHT22;32569;51.762;8.564;2023-06-26T15:18:46;25.20;75.90
15231;DHT22;32569;51.762;8.564;2023-06-26T15:21:12;24.90;75.70
15231;DHT22;32569;51.762;8.564;2023-06-26T15:23:39;24.80;76.80
15231;DHT22;32569;51.762;8.564;2023-06-26T15:26:06;24.90;75.90
15231;DHT22;32569;51.762;8.564;2023-06-26T15:28:32;25.10;76.00
15231;DHT22;32569;51.762;8.564;2023-06-26T15:30:59;25.20;76.70
15231;DHT22;32569;51.762;8.564;2023-06-26T15:33:27;25.30;77.90